createdAt,value
2019-05-21T00:01:45.330Z,82.66
2019-05-21T00:04:28.180Z,82.14
2019-05-21T00:06:53.797Z,82.81
2019-05-21T00:09:25.738Z,82.77
2019-05-21T00:11:56.616Z,83.99
2019-05-21T00:14:30.497Z,83.69
2019-05-21T00:17:01.249Z,83.43
2019-05-21T00:19:31.910Z,83.07
2019-05-21T00:22:02.652Z,83.34
2019-05-21T00:24:33.434Z,82.83
2019-05-21T00:27:07.105Z,83.33
2019-05-21T00:29:57.336Z,82.55
2019-05-21T00:33:04.754Z,83.05
2019-05-21T00:36:14.910Z,82.96
2019-05-21T00:39:34.116Z,82.96
2019-05-21T00:42:06.225Z,82.57
2019-05-21T00:44:40.092Z,83.04
2019-05-21T00:47:15.924Z,83.50
2019-05-21T00:49:47.521Z,83.28
2019-05-21T00:52:18.223Z,83.84
2019-05-21T00:54:49.007Z,83.39
2019-05-21T00:57:20.493Z,82.75
2019-05-21T00:59:51.099Z,82.62
2019-05-21T01:02:22.723Z,82.86
2019-05-21T01:05:00.756Z,82.82
2019-05-21T01:07:25.905Z,83.33
2019-05-21T01:09:56.680Z,82.57
2019-05-21T01:12:27.276Z,82.77
2019-05-21T01:15:09.318Z,83.34
2019-05-21T01:17:44.951Z,83.76
2019-05-21T01:20:15.824Z,83.59
2019-05-21T01:22:50.900Z,83.60
2019-05-21T01:25:21.586Z,84.20
2019-05-21T01:27:54.301Z,84.35
2019-05-21T01:30:26.925Z,84.01
2019-05-21T01:32:58.080Z,83.18
2019-05-21T01:35:29.013Z,83.67
2019-05-21T01:37:59.731Z,83.54
2019-05-21T01:40:32.447Z,82.31
2019-05-21T01:43:03.620Z,83.52
2019-05-21T01:45:34.696Z,82.72
2019-05-21T01:48:05.595Z,83.39
2019-05-21T01:50:36.279Z,83.35
2019-05-21T01:53:08.937Z,83.24
2019-05-21T01:55:40.655Z,82.96
2019-05-21T01:58:14.397Z,83.62
2019-05-21T02:00:45.005Z,83.25
2019-05-21T02:03:15.592Z,83.71
2019-05-21T02:05:46.298Z,83.78
2019-05-21T02:08:16.989Z,83.45
2019-05-21T02:10:50.665Z,83.65
2019-05-21T02:13:21.340Z,84.31
2019-05-21T02:15:52.166Z,83.98
2019-05-21T02:18:22.814Z,83.78
2019-05-21T02:20:54.558Z,84.58
2019-05-21T02:23:25.286Z,83.91
2019-05-21T02:25:56.912Z,84.39
2019-05-21T02:28:40.654Z,84.46
2019-05-21T02:31:11.442Z,85.02
2019-05-21T02:33:43.205Z,84.49
2019-05-21T02:36:18.964Z,83.90
2019-05-21T02:38:51.847Z,83.84
2019-05-21T02:41:22.504Z,83.35
2019-05-21T02:43:53.162Z,84.08
2019-05-21T02:46:23.761Z,84.71
2019-05-21T02:48:54.439Z,84.50
2019-05-21T02:51:25.598Z,84.43
2019-05-21T02:53:56.201Z,83.95
2019-05-21T02:56:26.852Z,84.09
2019-05-21T02:59:06.822Z,84.36
2019-05-21T03:01:39.288Z,85.13
2019-05-21T03:04:09.968Z,84.56
2019-05-21T03:06:40.577Z,84.06
2019-05-21T03:09:11.163Z,84.80
2019-05-21T03:11:41.863Z,84.00
2019-05-21T03:14:12.541Z,84.54
2019-05-21T03:16:43.233Z,84.77
2019-05-21T03:19:16.499Z,84.36
2019-05-21T03:21:46.308Z,84.85
2019-05-21T03:24:17.058Z,84.80
2019-05-21T03:26:47.949Z,84.95
2019-05-21T03:29:18.519Z,84.71
2019-05-21T03:31:49.128Z,85.12
2019-05-21T03:34:19.877Z,85.04
2019-05-21T03:36:54.733Z,84.79
2019-05-21T03:39:25.569Z,84.42
2019-05-21T03:41:58.161Z,84.68
2019-05-21T03:44:30.292Z,85.40
2019-05-21T03:47:01.184Z,85.11
2019-05-21T03:49:33.022Z,84.04
2019-05-21T03:52:04.002Z,84.71
2019-05-21T03:54:49.891Z,84.99
2019-05-21T03:57:20.507Z,85.02
2019-05-21T03:59:52.195Z,85.07
2019-05-21T04:02:22.952Z,84.63
2019-05-21T04:04:56.890Z,84.96
2019-05-21T04:07:27.976Z,85.04
2019-05-21T04:09:58.745Z,85.16
2019-05-21T04:12:29.479Z,85.56
2019-05-21T04:15:01.825Z,84.67
2019-05-21T04:17:34.987Z,84.79
2019-05-21T04:20:06.283Z,85.49
2019-05-21T04:22:43.191Z,85.04
2019-05-21T04:25:20.237Z,85.38
2019-05-21T04:27:53.062Z,85.08
2019-05-21T04:30:24.689Z,85.31
2019-05-21T04:32:58.804Z,85.47
2019-05-21T04:35:29.612Z,85.44
2019-05-21T04:38:00.222Z,85.11
2019-05-21T04:40:32.823Z,85.10
2019-05-21T04:43:03.563Z,85.04
2019-05-21T04:45:34.220Z,84.80
2019-05-21T04:48:04.962Z,84.72
2019-05-21T04:50:35.756Z,84.72
2019-05-21T04:53:10.135Z,84.67
2019-05-21T04:55:40.853Z,83.65
2019-05-21T04:58:11.541Z,84.59
2019-05-21T05:00:47.524Z,84.52
2019-05-21T05:03:18.234Z,84.78
2019-05-21T05:05:48.883Z,84.46
2019-05-21T05:08:19.511Z,84.10
2019-05-21T05:10:50.216Z,84.09
2019-05-21T05:13:22.937Z,84.47
2019-05-21T05:15:53.589Z,84.18
2019-05-21T05:18:24.200Z,83.73
2019-05-21T05:20:54.892Z,84.49
2019-05-21T05:23:27.601Z,84.87
2019-05-21T05:26:03.136Z,84.94
2019-05-21T05:28:33.767Z,84.09
2019-05-21T05:31:07.978Z,83.66
2019-05-21T05:33:39.638Z,83.61
2019-05-21T05:36:10.374Z,83.86
2019-05-21T05:38:41.130Z,83.84
2019-05-21T05:41:11.740Z,83.99
2019-05-21T05:43:42.415Z,83.93
2019-05-21T05:46:12.992Z,84.34
2019-05-21T05:48:45.400Z,83.56
2019-05-21T05:51:17.211Z,84.20
2019-05-21T05:53:57.190Z,83.51
2019-05-21T05:56:28.757Z,83.61
2019-05-21T05:58:59.470Z,83.82
2019-05-21T06:01:31.809Z,83.75
2019-05-21T06:04:04.611Z,83.32
2019-05-21T06:06:35.246Z,83.74
2019-05-21T06:09:10.940Z,84.33
2019-05-21T06:11:41.533Z,83.68
2019-05-21T06:14:14.387Z,83.79
2019-05-21T06:16:50.645Z,83.46
2019-05-21T06:19:22.460Z,83.27
2019-05-21T06:21:54.217Z,82.89
2019-05-21T06:24:24.947Z,83.08
2019-05-21T06:26:55.588Z,82.43
2019-05-21T06:29:26.291Z,82.34
2019-05-21T06:31:56.994Z,82.76
2019-05-21T06:34:31.848Z,83.09
2019-05-21T06:37:02.629Z,82.69
2019-05-21T06:39:33.342Z,82.73
2019-05-21T06:42:06.013Z,83.19
2019-05-21T06:44:37.786Z,82.84
2019-05-21T06:47:08.542Z,82.58
2019-05-21T06:49:39.239Z,82.76
2019-05-21T06:52:10.062Z,82.49
2019-05-21T06:54:40.710Z,82.52
2019-05-21T06:57:11.489Z,82.28
2019-05-21T06:59:42.167Z,82.35
2019-05-21T07:02:13.958Z,83.06
2019-05-21T07:04:44.588Z,82.10
2019-05-21T07:07:15.281Z,81.73
2019-05-21T07:09:45.878Z,82.41
2019-05-21T07:12:16.562Z,82.95
2019-05-21T07:14:47.250Z,82.95
2019-05-21T07:17:17.890Z,82.25
2019-05-21T07:19:49.681Z,82.60
2019-05-21T07:22:24.953Z,81.91
2019-05-21T07:24:55.664Z,82.08
2019-05-21T07:27:26.350Z,82.91
2019-05-21T07:29:57.093Z,82.93
2019-05-21T07:32:28.719Z,82.60
2019-05-21T07:34:59.436Z,82.75
2019-05-21T07:37:30.177Z,82.08
2019-05-21T07:40:01.024Z,82.12
2019-05-21T07:42:32.898Z,82.56
2019-05-21T07:45:03.725Z,81.80
2019-05-21T07:47:34.593Z,82.27
2019-05-21T07:50:06.675Z,81.96
2019-05-21T07:52:38.456Z,82.20
2019-05-21T07:55:13.215Z,82.50
2019-05-21T07:57:45.030Z,82.75
2019-05-21T08:00:16.132Z,82.86
2019-05-21T08:02:46.875Z,82.50
2019-05-21T08:05:18.118Z,82.63
2019-05-21T08:07:48.878Z,83.11
2019-05-21T08:13:39.013Z,83.67
2019-05-21T08:16:09.767Z,82.73
2019-05-21T08:18:40.624Z,83.47
2019-05-21T08:21:11.394Z,84.15
2019-05-21T08:23:42.081Z,83.31
2019-05-21T08:26:12.760Z,84.39
2019-05-21T08:29:01.669Z,84.70
2019-05-21T08:31:37.611Z,84.65
2019-05-21T08:34:11.201Z,83.91
2019-05-21T08:36:41.902Z,84.09
2019-05-21T08:39:28.728Z,83.41
2019-05-21T08:41:56.963Z,83.61
2019-05-21T08:44:27.585Z,84.24
2019-05-21T08:46:58.211Z,84.43
2019-05-21T08:49:38.391Z,84.42
2019-05-21T08:52:26.055Z,84.23
2019-05-21T08:54:56.880Z,83.96
2019-05-21T09:00:55.099Z,84.34
2019-05-21T09:01:58.273Z,84.23
2019-05-21T09:03:35.900Z,84.96
2019-05-21T09:06:06.639Z,84.25
2019-05-21T09:08:37.238Z,84.14
2019-05-21T09:11:07.858Z,84.07
2019-05-21T09:13:38.477Z,84.50
2019-05-21T09:16:09.065Z,84.29
2019-05-21T09:18:39.747Z,84.02
2019-05-21T09:21:16.224Z,84.13
2019-05-21T09:23:47.004Z,84.02
2019-05-21T09:26:17.710Z,84.41
2019-05-21T09:28:48.368Z,84.79
2019-05-21T09:31:19.088Z,84.43
2019-05-21T09:33:49.634Z,84.05
2019-05-21T09:36:20.333Z,83.55
2019-05-21T09:38:50.967Z,83.65
2019-05-21T09:41:21.698Z,83.63
2019-05-21T09:43:52.303Z,84.20
2019-05-21T09:46:27.187Z,84.20
2019-05-21T09:48:57.874Z,84.13
2019-05-21T09:51:28.638Z,84.36
2019-05-21T09:53:59.311Z,83.60
2019-05-21T09:56:37.162Z,83.26
2019-05-21T09:59:26.325Z,84.30
2019-05-21T10:02:16.005Z,84.45
2019-05-21T10:04:46.682Z,84.47
2019-05-21T10:07:17.380Z,84.52
2019-05-21T10:09:48.165Z,84.68
2019-05-21T10:12:27.885Z,83.81
2019-05-21T10:14:58.562Z,83.57
2019-05-21T10:17:30.261Z,84.25
2019-05-21T10:20:00.937Z,83.82
2019-05-21T10:22:31.636Z,84.16
2019-05-21T10:25:02.407Z,84.47
2019-05-21T10:27:33.353Z,84.33
2019-05-21T10:30:14.763Z,84.81
2019-05-21T10:32:55.406Z,84.69
2019-05-21T10:35:26.085Z,85.04
2019-05-21T10:37:56.721Z,84.92
2019-05-21T10:40:28.460Z,84.93
2019-05-21T10:42:59.236Z,85.19
2019-05-21T10:45:29.930Z,84.61
2019-05-21T10:48:00.691Z,84.24
2019-05-21T10:50:31.372Z,84.59
2019-05-21T10:53:02.069Z,84.87
2019-05-21T10:55:32.755Z,84.50
2019-05-21T10:58:03.511Z,83.78
2019-05-21T11:00:39.620Z,84.44
2019-05-21T11:03:13.321Z,84.66
2019-05-21T11:06:08.997Z,83.92
2019-05-21T11:08:29.137Z,84.21
2019-05-21T11:11:00.647Z,84.34
2019-05-21T11:13:50.471Z,84.47
2019-05-21T11:16:21.046Z,84.06
2019-05-21T11:19:07.016Z,84.71
2019-05-21T11:21:39.656Z,84.43
2019-05-21T11:24:12.574Z,84.86
2019-05-21T11:26:43.172Z,84.11
2019-05-21T11:29:13.911Z,84.40
2019-05-21T11:31:56.252Z,83.38
2019-05-21T11:34:24.737Z,84.00
2019-05-21T11:36:55.410Z,84.28
2019-05-21T11:39:26.057Z,84.11
2019-05-21T11:42:04.119Z,84.14
2019-05-21T11:44:34.781Z,83.69
2019-05-21T11:47:05.485Z,84.20
2019-05-21T11:49:36.228Z,84.43
2019-05-21T11:52:06.916Z,83.66
2019-05-21T11:54:38.595Z,83.33
2019-05-21T11:57:09.306Z,84.10
2019-05-21T11:59:40.911Z,83.49
2019-05-21T12:02:11.755Z,83.48
2019-05-21T12:04:42.548Z,83.17
2019-05-21T12:07:13.270Z,83.13
2019-05-21T12:09:50.765Z,83.48
2019-05-21T12:12:21.443Z,82.73
2019-05-21T12:14:52.062Z,83.32
2019-05-21T12:17:22.676Z,83.70
2019-05-21T12:19:53.390Z,83.28
2019-05-21T12:22:24.010Z,83.47
2019-05-21T12:24:54.721Z,83.46
2019-05-21T12:27:25.441Z,83.29
2019-05-21T12:29:57.205Z,82.48
2019-05-21T12:32:34.159Z,82.87
2019-05-21T12:35:11.171Z,82.99
2019-05-21T12:37:41.783Z,82.71
2019-05-21T12:40:13.673Z,83.14
2019-05-21T12:42:44.341Z,84.44
2019-05-21T12:45:15.123Z,83.00
2019-05-21T12:47:45.716Z,83.13
2019-05-21T12:50:17.282Z,82.96
2019-05-21T12:52:47.825Z,82.98
2019-05-21T12:55:24.748Z,83.15
2019-05-21T12:58:02.246Z,83.69
2019-05-21T13:00:37.031Z,83.26
2019-05-21T13:03:12.732Z,82.69
2019-05-21T13:05:46.813Z,82.14
2019-05-21T13:08:18.467Z,82.81
2019-05-21T13:11:00.602Z,82.32
2019-05-21T13:13:31.272Z,82.12
2019-05-21T13:16:02.084Z,81.76
2019-05-21T13:18:33.834Z,81.32
2019-05-21T13:21:08.450Z,82.46
2019-05-21T13:23:38.091Z,83.01
2019-05-21T13:26:10.831Z,82.87
2019-05-21T13:28:49.380Z,82.44
2019-05-21T13:31:25.801Z,82.45
2019-05-21T13:33:57.424Z,82.49
2019-05-21T13:36:38.311Z,81.44
2019-05-21T13:39:31.384Z,81.96
2019-05-21T13:42:03.134Z,81.54
2019-05-21T13:44:34.765Z,80.87
2019-05-21T13:47:05.437Z,81.10
2019-05-21T13:49:42.706Z,81.30
2019-05-21T13:52:13.360Z,81.40
2019-05-21T13:54:45.071Z,81.31
2019-05-21T13:57:16.176Z,80.90
2019-05-21T14:00:06.204Z,81.52
2019-05-21T14:02:37.014Z,81.27
2019-05-21T14:05:09.310Z,80.54
2019-05-21T14:07:40.182Z,80.81
2019-05-21T14:10:16.842Z,81.19
2019-05-21T14:12:50.260Z,81.67
2019-05-21T14:15:26.919Z,81.09
2019-05-21T14:17:59.832Z,82.33
2019-05-21T14:20:30.556Z,82.71
2019-05-21T14:23:15.637Z,81.66
2019-05-21T14:25:55.181Z,81.63
2019-05-21T14:28:34.271Z,82.56
2019-05-21T14:31:12.915Z,82.11
2019-05-21T14:33:47.046Z,81.07
2019-05-21T14:36:17.880Z,81.83
2019-05-21T14:38:51.871Z,81.27
2019-05-21T14:41:22.633Z,82.06
2019-05-21T14:43:57.590Z,82.43
2019-05-21T14:46:28.483Z,82.00
2019-05-21T14:48:59.409Z,81.87
2019-05-21T14:51:36.175Z,82.52
2019-05-21T14:54:06.878Z,81.40
2019-05-21T14:56:56.153Z,82.02
2019-05-21T14:59:33.110Z,81.38
2019-05-21T15:02:07.235Z,81.31
2019-05-21T15:04:43.686Z,81.97
2019-05-21T15:07:20.877Z,82.06
2019-05-21T15:13:14.248Z,81.80
2019-05-21T15:15:46.077Z,81.76
2019-05-21T15:18:22.066Z,82.22
2019-05-21T15:20:56.603Z,82.17
2019-05-21T15:23:30.594Z,81.84
2019-05-21T15:26:02.349Z,82.22
2019-05-21T15:28:33.046Z,81.99
2019-05-21T15:31:03.655Z,82.24
2019-05-21T15:33:34.445Z,83.00
2019-05-21T15:36:09.311Z,82.95
2019-05-21T15:38:51.186Z,82.16
2019-05-21T15:41:21.655Z,81.91
2019-05-21T15:43:53.427Z,82.34
2019-05-21T15:46:25.153Z,82.57
2019-05-21T15:48:55.949Z,82.51
2019-05-21T15:51:28.602Z,82.85
2019-05-21T15:54:16.015Z,82.77
2019-05-21T15:56:46.878Z,82.09
2019-05-21T15:59:17.732Z,81.98
2019-05-21T16:02:00.084Z,82.35
2019-05-21T16:04:30.745Z,81.53
2019-05-21T16:07:01.614Z,81.76
2019-05-21T16:09:33.305Z,81.06
2019-05-21T16:12:04.126Z,81.30
2019-05-21T16:14:34.789Z,81.50
2019-05-21T16:17:15.969Z,81.65
2019-05-21T16:20:06.084Z,82.41
2019-05-21T16:22:36.712Z,82.59
2019-05-21T16:25:07.826Z,82.29
2019-05-21T16:27:38.509Z,83.12
2019-05-21T16:30:17.635Z,82.44
2019-05-21T16:32:48.318Z,82.29
2019-05-21T16:35:19.092Z,82.69
2019-05-21T16:37:49.808Z,82.47
2019-05-21T16:40:20.652Z,82.12
2019-05-21T16:42:52.299Z,82.04
2019-05-21T16:45:23.007Z,82.29
2019-05-21T16:47:54.373Z,82.10
2019-05-21T16:50:25.201Z,82.08
2019-05-21T16:52:55.971Z,81.87
2019-05-21T16:55:27.684Z,82.82
2019-05-21T16:57:58.449Z,83.41
2019-05-21T17:00:29.250Z,82.50
2019-05-21T17:02:59.851Z,82.57
2019-05-21T17:05:35.580Z,82.58
2019-05-21T17:08:06.338Z,82.62
2019-05-21T17:10:37.183Z,82.41
2019-05-21T17:13:08.815Z,82.40
2019-05-21T17:15:45.264Z,83.04
2019-05-21T17:18:15.902Z,83.08
2019-05-21T17:20:46.888Z,83.00
2019-05-21T17:23:19.642Z,83.56
2019-05-21T17:25:50.451Z,83.56
2019-05-21T17:28:27.321Z,82.69
2019-05-21T17:30:58.036Z,81.63
2019-05-21T17:33:28.787Z,82.82
2019-05-21T17:35:59.438Z,83.16
2019-05-21T17:38:30.266Z,82.71
2019-05-21T17:41:00.969Z,82.10
2019-05-21T17:43:32.649Z,81.80
2019-05-21T17:46:03.225Z,82.01
2019-05-21T17:48:37.199Z,81.66
2019-05-21T17:51:09.150Z,82.12
2019-05-21T17:53:41.042Z,82.21
2019-05-21T17:56:11.736Z,82.75
2019-05-21T17:58:42.498Z,83.31
2019-05-21T18:01:15.529Z,83.57
2019-05-21T18:03:46.881Z,83.53
2019-05-21T18:06:18.038Z,82.94
2019-05-21T18:08:49.426Z,83.39
2019-05-21T18:11:20.271Z,84.15
2019-05-21T18:13:51.298Z,83.52
2019-05-21T18:16:22.006Z,83.82
2019-05-21T18:18:53.154Z,84.52
2019-05-21T18:21:24.949Z,84.65
2019-05-21T18:23:56.524Z,84.26
2019-05-21T18:26:27.300Z,83.94
2019-05-21T18:28:58.170Z,84.04
2019-05-21T18:31:30.065Z,84.06
2019-05-21T18:34:00.818Z,83.65
2019-05-21T18:36:32.720Z,82.73
2019-05-21T18:39:06.348Z,82.42
2019-05-21T18:41:37.224Z,83.30
2019-05-21T18:44:10.037Z,82.60
2019-05-21T18:46:44.351Z,82.78
2019-05-21T18:49:15.154Z,83.01
2019-05-21T18:51:46.094Z,82.51
2019-05-21T18:54:17.887Z,83.20
2019-05-21T18:56:48.828Z,81.80
2019-05-21T18:59:19.636Z,81.83
2019-05-21T19:01:52.509Z,82.52
2019-05-21T19:04:23.353Z,83.05
2019-05-21T19:06:54.227Z,82.29
2019-05-21T19:09:26.095Z,82.68
2019-05-21T19:11:57.285Z,82.16
2019-05-21T19:14:28.346Z,82.23
2019-05-21T19:16:59.067Z,81.48
2019-05-21T19:19:30.741Z,81.14
2019-05-21T19:22:05.838Z,81.98
2019-05-21T19:24:36.534Z,82.36
2019-05-21T19:27:07.383Z,82.59
2019-05-21T19:29:39.103Z,82.37
2019-05-21T19:32:19.556Z,80.35
2019-05-21T19:34:50.210Z,81.78
2019-05-21T19:37:20.862Z,81.03
2019-05-21T19:39:51.682Z,81.42
2019-05-21T19:42:22.639Z,81.10
2019-05-21T19:44:53.444Z,81.67
2019-05-21T19:47:24.524Z,81.36
2019-05-21T19:49:55.278Z,82.41
2019-05-21T19:52:26.059Z,82.49
2019-05-21T19:54:56.778Z,81.87
2019-05-21T19:57:30.015Z,80.96
2019-05-21T20:00:08.152Z,81.67
2019-05-21T20:02:39.811Z,81.22
2019-05-21T20:05:18.298Z,81.75
2019-05-21T20:07:49.402Z,81.73
2019-05-21T20:10:20.480Z,83.13
2019-05-21T20:12:52.208Z,82.94
2019-05-21T20:15:24.208Z,82.97
2019-05-21T20:18:06.507Z,82.90
2019-05-21T20:20:27.870Z,83.04
2019-05-21T20:22:58.551Z,82.21
2019-05-21T20:25:29.595Z,82.63
2019-05-21T20:28:00.526Z,82.71
2019-05-21T20:30:31.900Z,82.38
2019-05-21T20:33:02.873Z,83.90
2019-05-21T20:35:34.650Z,83.64
2019-05-21T20:38:07.520Z,83.54
2019-05-21T20:40:38.380Z,83.45
2019-05-21T20:43:10.502Z,83.50
2019-05-21T20:45:41.421Z,83.58
2019-05-21T20:48:13.871Z,84.02
2019-05-21T20:50:44.619Z,83.82
2019-05-21T20:53:15.476Z,83.80
2019-05-21T20:55:47.188Z,82.73
2019-05-21T20:58:18.590Z,83.31
2019-05-21T21:00:58.671Z,83.29
2019-05-21T21:03:30.532Z,83.70
2019-05-21T21:06:01.270Z,83.43
2019-05-21T21:08:34.181Z,83.12
2019-05-21T21:11:06.825Z,83.00
2019-05-21T21:13:37.567Z,83.22
2019-05-21T21:16:10.319Z,82.83
2019-05-21T21:18:43.802Z,81.99
2019-05-21T21:21:16.352Z,82.55
2019-05-21T21:23:48.805Z,82.32
2019-05-21T21:26:19.859Z,83.08
2019-05-21T21:28:54.619Z,83.46
2019-05-21T21:31:25.368Z,83.26
2019-05-21T21:33:57.353Z,83.08
2019-05-21T21:36:34.558Z,83.34
2019-05-21T21:39:07.740Z,82.10
2019-05-21T21:41:40.304Z,83.10
2019-05-21T21:44:15.827Z,82.89
2019-05-21T21:47:00.115Z,82.09
2019-05-21T21:49:32.504Z,82.39
2019-05-21T21:52:07.002Z,82.09
2019-05-21T21:54:39.693Z,82.30
2019-05-21T21:57:10.750Z,83.22
2019-05-21T21:59:44.059Z,82.44
2019-05-21T22:02:24.439Z,82.12
2019-05-21T22:04:55.940Z,83.28
2019-05-21T22:07:28.764Z,83.28
2019-05-21T22:10:00.177Z,83.03
2019-05-21T22:12:31.482Z,83.09
2019-05-21T22:15:02.658Z,82.78
2019-05-21T22:17:34.474Z,83.10
2019-05-21T22:20:08.619Z,82.80
2019-05-21T22:22:41.532Z,83.08
2019-05-21T22:25:12.361Z,82.10
2019-05-21T22:27:43.180Z,82.83
2019-05-21T22:30:19.171Z,82.43
2019-05-21T22:32:52.546Z,82.37
2019-05-21T22:35:26.695Z,82.45
2019-05-21T22:37:57.490Z,82.72
2019-05-21T22:40:28.200Z,82.91
2019-05-21T22:43:02.578Z,83.22
2019-05-21T22:45:33.251Z,82.79
2019-05-21T22:48:11.247Z,82.58
2019-05-21T22:50:43.407Z,82.98
2019-05-21T22:53:14.337Z,82.58
2019-05-21T22:55:45.031Z,83.07
2019-05-21T22:58:15.703Z,83.92
2019-05-21T23:00:46.540Z,83.13
2019-05-21T23:03:18.302Z,83.26
2019-05-21T23:05:49.126Z,83.55
2019-05-21T23:08:25.863Z,83.14
2019-05-21T23:10:56.742Z,83.28
2019-05-21T23:13:27.565Z,83.84
2019-05-21T23:15:58.685Z,82.94
2019-05-21T23:18:37.516Z,83.32
2019-05-21T23:21:16.642Z,83.47
2019-05-21T23:23:53.279Z,82.58
2019-05-21T23:26:23.913Z,82.48
2019-05-21T23:28:54.581Z,83.02
2019-05-21T23:31:26.139Z,83.26
2019-05-21T23:33:58.570Z,83.73
2019-05-21T23:36:37.555Z,83.77
2019-05-21T23:39:09.913Z,83.62
2019-05-21T23:41:44.327Z,83.57
2019-05-21T23:44:15.584Z,83.83
2019-05-21T23:46:46.266Z,83.52
2019-05-21T23:49:22.999Z,84.22
2019-05-21T23:51:54.779Z,83.47
2019-05-21T23:54:25.403Z,83.79
2019-05-21T23:56:57.715Z,84.33
2019-05-21T23:59:32.273Z,84.10
